EDT,Max TemperatureF,Mean TemperatureF,Min TemperatureF,Max Dew PointF,MeanDew PointF,Min DewpointF,Max Humidity, Mean Humidity, Min Humidity, Max Sea Level PressureIn, Mean Sea Level PressureIn, Min Sea Level PressureIn, Max VisibilityMiles, Mean VisibilityMiles, Min VisibilityMiles, Max Wind SpeedMPH, Mean Wind SpeedMPH, Max Gust SpeedMPH,PrecipitationIn, CloudCover, Events, WindDirDegrees
2013-3-1,51,40,30,30,27,26,83,57,37,29.92,29.89,29.84,10,10,10,15,5,17,0.00,4,,303
2013-3-2,48,40,31,33,28,20,91,64,40,29.94,29.89,29.82,10,10,10,8,3,,0.00,6,,303
2013-3-3,48,36,25,22,19,18,79,50,33,30.01,29.93,29.88,10,10,10,12,5,20,0.00,0,,319
2013-3-4,52,38,23,24,17,12,75,49,21,30.14,30.08,30.01,10,10,10,15,5,22,0.00,0,,293
2013-3-5,53,42,32,49,41,25,100,80,47,30.09,29.88,29.58,10,10,5,15,3,,0.14,6,Rain,127
2013-3-6,53,46,38,50,35,23,88,67,37,30.05,29.69,29.53,10,10,9,30,16,40,0.05,6,Rain,300
2013-3-7,55,44,34,30,28,25,76,54,37,30.25,30.16,30.07,10,10,10,17,10,24,0.00,0,,335
2013-3-8,57,43,29,28,24,23,80,40,27,30.31,30.21,30.15,10,10,10,21,10,30,0.00,0,,338
2013-3-9,63,46,30,35,29,26,83,56,27,30.35,30.29,30.24,10,10,10,13,4,18,0.00,0,,359
2013-3-10,67,48,29,36,27,20,94,52,16,30.33,30.27,30.21,10,10,10,8,2,,0.00,0,,128
2013-3-11,69,52,35,54,45,29,84,67,48,30.25,30.09,29.96,10,10,10,13,5,23,0.00,3,Rain,131
2013-3-12,76,66,53,63,58,31,100,86,38,29.95,29.84,29.75,10,10,4,16,9,25,0.39,6,Rain,214
2013-3-13,60,48,36,33,26,20,86,42,23,30.14,30.03,29.95,10,10,10,21,8,26,0.00,1,,313
2013-3-14,54,42,29,28,19,15,69,42,24,30.27,30.20,30.12,10,10,10,13,8,21,0.00,0,,312
2013-3-15,64,46,28,35,28,20,84,50,26,30.22,30.09,29.93,10,10,10,16,6,25,0.00,0,,243
2013-3-16,80,66,51,47,42,36,63,44,28,29.92,29.82,29.70,10,10,10,25,12,34,0.00,1,,245
2013-3-17,66,56,47,54,46,39,83,67,57,30.15,29.99,29.87,10,10,9,17,9,23,0.00,3,,63
2013-3-18,51,46,40,45,41,39,100,89,71,30.18,30.07,29.93,10,9,6,15,9,20,0.06,8,Rain-Thunderstorm,56
2013-3-19,70,56,42,46,39,19,100,74,15,30.02,29.89,29.83,10,10,4,18,5,23,0.00,5,Rain,298
2013-3-20,57,46,33,28,19,11,81,36,19,30.14,29.99,29.79,10,10,10,13,5,,0.00,3,,358
2013-3-21,49,40,32,27,17,10,80,42,21,29.97,29.82,29.74,10,10,10,18,8,25,0.00,0,,324
2013-3-22,54,38,23,27,15,10,71,42,21,30.12,30.04,29.99,10,10,10,13,5,,0.00,0,,298
2013-3-23,53,44,35,34,31,27,84,62,42,30.07,30.02,29.92,10,10,10,6,1,,0.00,4,Rain,297
2013-3-24,42,38,35,41,38,32,100,92,70,29.92,29.66,29.55,10,8,2,16,7,22,0.75,8,Rain,46
2013-3-25,51,44,37,41,35,20,100,81,32,29.86,29.63,29.56,10,9,4,20,7,32,0.01,7,Rain,295
2013-3-26,50,42,36,28,26,23,66,51,42,30.14,29.98,29.87,10,10,10,15,8,23,0.00,5,,300
2013-3-27,54,42,31,26,23,20,77,43,28,30.25,30.19,30.14,10,10,10,18,9,26,0.00,0,,312
2013-3-28,57,42,28,28,24,21,78,47,25,30.32,30.24,30.17,10,10,10,16,6,23,0.00,0,,298
2013-3-29,63,46,29,32,26,22,85,47,22,30.35,30.27,30.18,10,10,10,16,5,20,0.00,1,,269
2013-3-30,66,54,43,46,41,34,87,62,37,30.25,30.17,30.10,10,10,10,9,3,,0.00,4,Rain,223
2013-3-31,72,60,50,57,51,43,100,79,50,30.11,29.94,29.81,10,9,3,18,5,22,0.29,6,Rain,213